Alleberg Airport


Codes: ESGC/
Name: Alleberg Airport
City: Alleberg
Country: Sweden
Elevation: 0 ft.

Photos at Alleberg Airport


   Photos courtesy of SpottingLog. You can add your own sightings and photos by signing up for a free trial today.



No photos found.

Weather at Alleberg Airport


Time (UTC)DescriptionTempratureWindCloud coverageVisibilityPressureHumidity
13-Jun-2024 03:00Broken Clouds6°C7 mph, S79%10000m1010hPa97%
13-Jun-2024 06:00Broken Clouds8°C9 mph, SW54%10000m1010hPa83%
13-Jun-2024 09:00Light Rain11°C9 mph, SW63%10000m1010hPa62%
13-Jun-2024 12:00Light Rain13°C9 mph, SW80%10000m1010hPa48%
13-Jun-2024 15:00Light Rain12°C9 mph, SW92%10000m1011hPa70%
13-Jun-2024 18:00Light Rain10°C9 mph, SW79%10000m1011hPa88%
13-Jun-2024 21:00Few Clouds6°C4 mph, S21%10000m1012hPa97%
14-Jun-2024 00:00Few Clouds5°C4 mph, SW14%10000m1013hPa96%
14-Jun-2024 03:00Broken Clouds5°C4 mph, S71%10000m1013hPa96%
14-Jun-2024 06:00Overcast Clouds10°C4 mph, S85%10000m1013hPa82%
14-Jun-2024 09:00Light Rain14°C7 mph, S100%10000m1013hPa61%
14-Jun-2024 12:00Light Rain14°C11 mph, S100%10000m1013hPa73%
14-Jun-2024 15:00Light Rain14°C7 mph, S99%10000m1013hPa68%
14-Jun-2024 18:00Overcast Clouds14°C7 mph, S95%10000m1013hPa72%
14-Jun-2024 21:00Overcast Clouds11°C7 mph, SE98%10000m1013hPa88%
15-Jun-2024 00:00Overcast Clouds11°C9 mph, SE99%10000m1012hPa81%
15-Jun-2024 03:00Light Rain10°C7 mph, SE98%10000m1011hPa94%
15-Jun-2024 06:00Overcast Clouds11°C9 mph, SE99%10000m1010hPa85%
15-Jun-2024 09:00Overcast Clouds17°C13 mph, SE100%10000m1009hPa63%
15-Jun-2024 12:00Light Rain20°C16 mph, SE100%10000m1007hPa51%
15-Jun-2024 15:00Light Rain18°C16 mph, SE100%10000m1005hPa62%
15-Jun-2024 18:00Light Rain13°C11 mph, SE100%10000m1006hPa97%
15-Jun-2024 21:00Light Rain11°C7 mph, SW90%10000m1008hPa98%
16-Jun-2024 00:00Broken Clouds11°C4 mph, SW77%10000m1009hPa97%
16-Jun-2024 03:00Scattered Clouds9°C4 mph, S50%10000m1010hPa98%
16-Jun-2024 06:00Broken Clouds12°C7 mph, S65%10000m1010hPa89%
16-Jun-2024 09:00Broken Clouds18°C7 mph, S82%10000m1010hPa44%
16-Jun-2024 12:00Broken Clouds15°C7 mph, S75%10000m1011hPa64%
16-Jun-2024 15:00Light Rain18°C9 mph, SW100%10000m1011hPa54%
16-Jun-2024 18:00Light Rain13°C7 mph, SW100%9701m1012hPa93%
16-Jun-2024 21:00Light Rain10°C4 mph, S23%10000m1014hPa96%
17-Jun-2024 00:00Few Clouds9°C4 mph, S14%10000m1015hPa97%
17-Jun-2024 03:00Few Clouds9°C4 mph, S12%10000m1016hPa98%
17-Jun-2024 06:00Scattered Clouds14°C7 mph, S36%10000m1016hPa87%
17-Jun-2024 09:00Light Rain16°C9 mph, S88%10000m1016hPa80%
17-Jun-2024 12:00Light Rain17°C9 mph, S93%6555m1016hPa86%
17-Jun-2024 15:00Light Rain15°C7 mph, S100%9996m1015hPa93%
17-Jun-2024 18:00Light Rain15°C2 mph, S100%10000m1015hPa93%
17-Jun-2024 21:00Light Rain13°C4 mph, SE100%10000m1015hPa95%
18-Jun-2024 00:00Moderate Rain13°C4 mph, SE100%6681m1014hPa99%